sensor_id;sensor_type;location;lat;lon;timestamp;pressure;altitude;pressure_sealevel;temperature;humidity
62103;BME280;48077;48.104;11.702;2022-10-04T00:04:14;96247.88;;;3.29;100.00
62103;BME280;48077;48.104;11.702;2022-10-04T00:06:46;96246.25;;;3.28;100.00
62103;BME280;48077;48.104;11.702;2022-10-04T00:09:15;96252.81;;;3.32;100.00
62103;BME280;48077;48.104;11.702;2022-10-04T00:11:45;96248.38;;;3.33;100.00
62103;BME280;48077;48.104;11.702;2022-10-04T00:14:24;96250.66;;;3.44;100.00
62103;BME280;48077;48.104;11.702;2022-10-04T00:16:50;96233.53;;;3.40;100.00
62103;BME280;48077;48.104;11.702;2022-10-04T00:24:22;96256.47;;;3.79;100.00
62103;BME280;48077;48.104;11.702;2022-10-04T00:32:24;96245.41;;;3.83;100.00
62103;BME280;48077;48.104;11.702;2022-10-04T00:34:51;96218.56;;;3.72;100.00
62103;BME280;48077;48.104;11.702;2022-10-04T00:37:19;96230.75;;;3.73;100.00
62103;BME280;48077;48.104;11.702;2022-10-04T00:39:54;96242.47;;;3.70;100.00
62103;BME280;48077;48.104;11.702;2022-10-04T00:42:33;96236.56;;;3.68;100.00
62103;BME280;48077;48.104;11.702;2022-10-04T00:47:31;96241.19;;;3.66;100.00
62103;BME280;48077;48.104;11.702;2022-10-04T00:50:20;96232.97;;;3.61;100.00
62103;BME280;48077;48.104;11.702;2022-10-04T00:52:48;96227.38;;;3.56;100.00
62103;BME280;48077;48.104;11.702;2022-10-04T00:55:18;96223.75;;;3.57;100.00
62103;BME280;48077;48.104;11.702;2022-10-04T00:57:45;96209.94;;;3.47;100.00
62103;BME280;48077;48.104;11.702;2022-10-04T01:00:17;96219.97;;;3.51;100.00
62103;BME280;48077;48.104;11.702;2022-10-04T01:05:13;96232.03;;;3.37;100.00
62103;BME280;48077;48.104;11.702;2022-10-04T01:07:45;96216.56;;;3.34;100.00
62103;BME280;48077;48.104;11.702;2022-10-04T01:10:14;96211.31;;;3.26;100.00
62103;BME280;48077;48.104;11.702;2022-10-04T01:18:11;96222.38;;;3.21;100.00
62103;BME280;48077;48.104;11.702;2022-10-04T01:20:39;96212.34;;;3.17;100.00
62103;BME280;48077;48.104;11.702;2022-10-04T01:23:03;96204.09;;;3.12;100.00
62103;BME280;48077;48.104;11.702;2022-10-04T01:25:49;96215.16;;;3.07;100.00
62103;BME280;48077;48.104;11.702;2022-10-04T01:28:13;96211.38;;;3.01;100.00
62103;BME280;48077;48.104;11.702;2022-10-04T01:30:36;96206.91;;;3.02;100.00
62103;BME280;48077;48.104;11.702;2022-10-04T01:33:00;96209.75;;;3.00;100.00
62103;BME280;48077;48.104;11.702;2022-10-04T01:35:24;96215.66;;;3.02;100.00
62103;BME280;48077;48.104;11.702;2022-10-04T01:37:47;96205.28;;;3.01;100.00
62103;BME280;48077;48.104;11.702;2022-10-04T01:40:11;96196.56;;;3.00;100.00
62103;BME280;48077;48.104;11.702;2022-10-04T01:42:44;96196.72;;;2.99;100.00
62103;BME280;48077;48.104;11.702;2022-10-04T01:45:18;96194.75;;;2.93;100.00
62103;BME280;48077;48.104;11.702;2022-10-04T01:47:51;96196.91;;;2.89;100.00
62103;BME280;48077;48.104;11.702;2022-10-04T01:50:26;96182.25;;;2.78;100.00
62103;BME280;48077;48.104;11.702;2022-10-04T01:52:55;96195.13;;;2.81;100.00
62103;BME280;48077;48.104;11.702;2022-10-04T01:55:36;96184.25;;;2.76;100.00
62103;BME280;48077;48.104;11.702;2022-10-04T01:58:10;96186.72;;;2.78;100.00
62103;BME280;48077;48.104;11.702;2022-10-04T02:00:44;96190.00;;;2.80;100.00
62103;BME280;48077;48.104;11.702;2022-10-04T02:03:19;96179.63;;;2.78;100.00
62103;BME280;48077;48.104;11.702;2022-10-04T02:05:50;96171.72;;;2.70;100.00
62103;BME280;48077;48.104;11.702;2022-10-04T02:08:15;96168.94;;;2.72;100.00
62103;BME280;48077;48.104;11.702;2022-10-04T02:10:40;96167.63;;;2.68;100.00
62103;BME280;48077;48.104;11.702;2022-10-04T02:13:08;96168.63;;;2.58;100.00
62103;BME280;48077;48.104;11.702;2022-10-04T02:15:34;96167.13;;;2.56;100.00
62103;BME280;48077;48.104;11.702;2022-10-04T02:18:01;96162.38;;;2.51;100.00
62103;BME280;48077;48.104;11.702;2022-10-04T02:20:28;96173.56;;;2.45;100.00
62103;BME280;48077;48.104;11.702;2022-10-04T02:22:56;96163.38;;;2.42;100.00
62103;BME280;48077;48.104;11.702;2022-10-04T02:25:25;96160.91;;;2.40;100.00
62103;BME280;48077;48.104;11.702;2022-10-04T02:27:51;96161.56;;;2.34;100.00
62103;BME280;48077;48.104;11.702;2022-10-04T02:30:15;96169.78;;;2.31;100.00
62103;BME280;48077;48.104;11.702;2022-10-04T02:32:42;96155.31;;;2.27;100.00
62103;BME280;48077;48.104;11.702;2022-10-04T02:35:28;96161.06;;;2.31;100.00
62103;BME280;48077;48.104;11.702;2022-10-04T02:38:02;96154.31;;;2.28;100.00
62103;BME280;48077;48.104;11.702;2022-10-04T02:40:30;96151.84;;;2.27;100.00
62103;BME280;48077;48.104;11.702;2022-10-04T02:43:02;96153.66;;;2.26;100.00
62103;BME280;48077;48.104;11.702;2022-10-04T02:45:57;96162.88;;;2.22;100.00
62103;BME280;48077;48.104;11.702;2022-10-04T02:48:36;96169.97;;;2.21;100.00
62103;BME280;48077;48.104;11.702;2022-10-04T02:51:26;96162.56;;;2.17;100.00
62103;BME280;48077;48.104;11.702;2022-10-04T02:54:02;96167.81;;;2.25;100.00
62103;BME280;48077;48.104;11.702;2022-10-04T02:56:27;96163.22;;;2.27;100.00
62103;BME280;48077;48.104;11.702;2022-10-04T02:58:51;96139.53;;;2.19;100.00
62103;BME280;48077;48.104;11.702;2022-10-04T03:01:27;96156.13;;;2.28;100.00
62103;BME280;48077;48.104;11.702;2022-10-04T03:03:58;96166.31;;;2.31;100.00
62103;BME280;48077;48.104;11.702;2022-10-04T03:06:22;96163.22;;;2.27;100.00
62103;BME280;48077;48.104;11.702;2022-10-04T03:08:55;96152.19;;;2.15;100.00
62103;BME280;48077;48.104;11.702;2022-10-04T03:11:23;96168.81;;;2.24;100.00
62103;BME280;48077;48.104;11.702;2022-10-04T03:13:53;96158.28;;;2.24;100.00
62103;BME280;48077;48.104;11.702;2022-10-04T03:16:18;96160.75;;;2.26;100.00
62103;BME280;48077;48.104;11.702;2022-10-04T03:18:43;96161.72;;;2.25;100.00
62103;BME280;48077;48.104;11.702;2022-10-04T03:21:10;96165.50;;;2.30;100.00
62103;BME280;48077;48.104;11.702;2022-10-04T03:23:34;96166.66;;;2.28;100.00
62103;BME280;48077;48.104;11.702;2022-10-04T03:26:13;96147.06;;;2.14;100.00
62103;BME280;48077;48.104;11.702;2022-10-04T03:28:39;96156.28;;;2.18;100.00
62103;BME280;48077;48.104;11.702;2022-10-04T03:31:03;96152.84;;;2.17;100.00
62103;BME280;48077;48.104;11.702;2022-10-04T03:33:26;96145.91;;;2.08;100.00
62103;BME280;48077;48.104;11.702;2022-10-04T03:35:53;96149.72;;;2.14;100.00
62103;BME280;48077;48.104;11.702;2022-10-04T03:38:18;96146.56;;;2.10;100.00
62103;BME280;48077;48.104;11.702;2022-10-04T03:40:46;96155.31;;;2.11;100.00
62103;BME280;48077;48.104;11.702;2022-10-04T03:43:13;96151.03;;;2.10;100.00
62103;BME280;48077;48.104;11.702;2022-10-04T03:45:38;96157.94;;;2.11;100.00
62103;BME280;48077;48.104;11.702;2022-10-04T03:48:05;96162.38;;;2.10;100.00
62103;BME280;48077;48.104;11.702;2022-10-04T03:50:37;96157.44;;;2.07;100.00
62103;BME280;48077;48.104;11.702;2022-10-04T03:53:22;96155.13;;;2.04;100.00
62103;BME280;48077;48.104;11.702;2022-10-04T03:55:47;96163.50;;;1.99;100.00
62103;BME280;48077;48.104;11.702;2022-10-04T03:58:13;96158.59;;;1.96;100.00
62103;BME280;48077;48.104;11.702;2022-10-04T04:03:27;96150.03;;;1.86;100.00
62103;BME280;48077;48.104;11.702;2022-10-04T04:05:53;96153.63;;;1.85;100.00
62103;BME280;48077;48.104;11.702;2022-10-04T04:08:27;96152.81;;;1.85;100.00
62103;BME280;48077;48.104;11.702;2022-10-04T04:10:54;96147.88;;;1.81;100.00
62103;BME280;48077;48.104;11.702;2022-10-04T04:15:43;96144.91;;;1.76;100.00
62103;BME280;48077;48.104;11.702;2022-10-04T04:18:25;96158.69;;;1.70;100.00
62103;BME280;48077;48.104;11.702;2022-10-04T04:20:52;96151.81;;;1.69;100.00
62103;BME280;48077;48.104;11.702;2022-10-04T04:23:28;96147.34;;;1.70;100.00
62103;BME280;48077;48.104;11.702;2022-10-04T04:25:59;96126.13;;;1.55;100.00
62103;BME280;48077;48.104;11.702;2022-10-04T04:28:30;96152.94;;;1.67;100.00
62103;BME280;48077;48.104;11.702;2022-10-04T04:31:00;96141.59;;;1.66;100.00
62103;BME280;48077;48.104;11.702;2022-10-04T04:33:29;96147.84;;;1.65;100.00
62103;BME280;48077;48.104;11.702;2022-10-04T04:35:55;96149.31;;;1.59;100.00
62103;BME280;48077;48.104;11.702;2022-10-04T04:38:24;96154.25;;;1.63;100.00
62103;BME280;48077;48.104;11.702;2022-10-04T04:40:49;96161.81;;;1.66;100.00
62103;BME280;48077;48.104;11.702;2022-10-04T04:43:18;96148.81;;;1.64;100.00
62103;BME280;48077;48.104;11.702;2022-10-04T04:45:42;96158.53;;;1.72;100.00
62103;BME280;48077;48.104;11.702;2022-10-04T04:48:05;96159.50;;;1.71;100.00
62103;BME280;48077;48.104;11.702;2022-10-04T04:50:33;96152.44;;;1.63;100.00
62103;BME280;48077;48.104;11.702;2022-10-04T04:53:15;96159.84;;;1.68;100.00
62103;BME280;48077;48.104;11.702;2022-10-04T04:55:45;96156.56;;;1.66;100.00
62103;BME280;48077;48.104;11.702;2022-10-04T04:58:17;96150.47;;;1.65;100.00
62103;BME280;48077;48.104;11.702;2022-10-04T05:00:53;96149.16;;;1.61;100.00
62103;BME280;48077;48.104;11.702;2022-10-04T05:03:17;96148.00;;;1.64;100.00
62103;BME280;48077;48.104;11.702;2022-10-04T05:05:44;96145.84;;;1.59;100.00
62103;BME280;48077;48.104;11.702;2022-10-04T05:08:15;96159.50;;;1.71;100.00
62103;BME280;48077;48.104;11.702;2022-10-04T05:10:43;96150.81;;;1.70;100.00
62103;BME280;48077;48.104;11.702;2022-10-04T05:13:08;96149.47;;;1.66;100.00
62103;BME280;48077;48.104;11.702;2022-10-04T05:15:35;96150.75;;;1.54;100.00
62103;BME280;48077;48.104;11.702;2022-10-04T05:18:00;96164.56;;;1.56;100.00
62103;BME280;48077;48.104;11.702;2022-10-04T05:20:24;96164.56;;;1.56;100.00
62103;BME280;48077;48.104;11.702;2022-10-04T05:22:48;96162.78;;;1.56;100.00
62103;BME280;48077;48.104;11.702;2022-10-04T05:25:24;96166.88;;;1.51;100.00
62103;BME280;48077;48.104;11.702;2022-10-04T05:27:49;96151.09;;;1.51;100.00
62103;BME280;48077;48.104;11.702;2022-10-04T05:33:07;96171.81;;;1.62;100.00
62103;BME280;48077;48.104;11.702;2022-10-04T05:38:45;96166.44;;;1.80;100.00
62103;BME280;48077;48.104;11.702;2022-10-04T05:41:23;96159.25;;;1.90;100.00
62103;BME280;48077;48.104;11.702;2022-10-04T05:43:50;96152.69;;;2.02;100.00
62103;BME280;48077;48.104;11.702;2022-10-04T05:48:50;96144.44;;;2.22;100.00
62103;BME280;48077;48.104;11.702;2022-10-04T05:51:23;96156.78;;;2.30;100.00
62103;BME280;48077;48.104;11.702;2022-10-04T05:53:47;96148.56;;;2.33;100.00
62103;BME280;48077;48.104;11.702;2022-10-04T06:10:42;96161.16;;;2.95;100.00
62103;BME280;48077;48.104;11.702;2022-10-04T06:13:21;96171.69;;;3.03;100.00
62103;BME280;48077;48.104;11.702;2022-10-04T06:16:03;96174.13;;;3.13;100.00
62103;BME280;48077;48.104;11.702;2022-10-04T06:21:23;96145.22;;;3.36;100.00
62103;BME280;48077;48.104;11.702;2022-10-04T06:23:59;96148.72;;;3.59;100.00
62103;BME280;48077;48.104;11.702;2022-10-04T06:26:37;96158.53;;;3.74;100.00
62103;BME280;48077;48.104;11.702;2022-10-04T06:29:07;96159.13;;;3.84;100.00
62103;BME280;48077;48.104;11.702;2022-10-04T06:31:55;96151.00;;;3.94;100.00
62103;BME280;48077;48.104;11.702;2022-10-04T06:43:19;96141.31;;;4.32;100.00
62103;BME280;48077;48.104;11.702;2022-10-04T06:54:49;96159.19;;;4.83;100.00
62103;BME280;48077;48.104;11.702;2022-10-04T07:00:20;96166.22;;;5.05;100.00
62103;BME280;48077;48.104;11.702;2022-10-04T07:03:16;96161.50;;;5.16;100.00
62103;BME280;48077;48.104;11.702;2022-10-04T07:05:49;96160.22;;;5.26;100.00
62103;BME280;48077;48.104;11.702;2022-10-04T07:08:30;96151.63;;;5.39;100.00
62103;BME280;48077;48.104;11.702;2022-10-04T07:11:11;96144.22;;;5.50;100.00
62103;BME280;48077;48.104;11.702;2022-10-04T07:16:42;96137.22;;;5.78;100.00
62103;BME280;48077;48.104;11.702;2022-10-04T07:19:32;96152.75;;;5.96;100.00
62103;BME280;48077;48.104;11.702;2022-10-04T07:27:01;96160.81;;;6.31;100.00
62103;BME280;48077;48.104;11.702;2022-10-04T07:29:28;96166.63;;;6.41;100.00
62103;BME280;48077;48.104;11.702;2022-10-04T07:32:10;96165.94;;;6.54;100.00
62103;BME280;48077;48.104;11.702;2022-10-04T07:34:44;96151.09;;;6.60;100.00
62103;BME280;48077;48.104;11.702;2022-10-04T07:37:10;96151.25;;;6.80;100.00
62103;BME280;48077;48.104;11.702;2022-10-04T07:42:24;96147.09;;;6.99;100.00
62103;BME280;48077;48.104;11.702;2022-10-04T07:45:12;96171.13;;;7.19;100.00
62103;BME280;48077;48.104;11.702;2022-10-04T07:47:39;96168.28;;;7.27;100.00
62103;BME280;48077;48.104;11.702;2022-10-04T07:52:51;96175.38;;;7.55;100.00
62103;BME280;48077;48.104;11.702;2022-10-04T08:01:04;96176.56;;;7.94;100.00
62103;BME280;48077;48.104;11.702;2022-10-04T08:03:58;96182.53;;;8.09;100.00
62103;BME280;48077;48.104;11.702;2022-10-04T08:06:34;96192.59;;;8.27;100.00
62103;BME280;48077;48.104;11.702;2022-10-04T08:14:26;96187.50;;;8.39;100.00
62103;BME280;48077;48.104;11.702;2022-10-04T08:17:06;96190.00;;;8.47;100.00
62103;BME280;48077;48.104;11.702;2022-10-04T08:22:32;96201.06;;;8.57;100.00
62103;BME280;48077;48.104;11.702;2022-10-04T08:30:11;96189.03;;;8.95;100.00
62103;BME280;48077;48.104;11.702;2022-10-04T08:35:38;96199.44;;;9.23;100.00
62103;BME280;48077;48.104;11.702;2022-10-04T08:52:28;96194.19;;;9.81;98.77
62103;BME280;48077;48.104;11.702;2022-10-04T08:55:23;96195.16;;;9.93;98.00
62103;BME280;48077;48.104;11.702;2022-10-04T08:58:31;96183.63;;;10.06;97.04
62103;BME280;48077;48.104;11.702;2022-10-04T09:01:26;96170.69;;;10.10;95.80
62103;BME280;48077;48.104;11.702;2022-10-04T09:15:28;96172.81;;;10.71;92.30
62103;BME280;48077;48.104;11.702;2022-10-04T09:20:55;96177.06;;;10.79;90.19
62103;BME280;48077;48.104;11.702;2022-10-04T09:26:37;96167.19;;;11.05;88.56
62103;BME280;48077;48.104;11.702;2022-10-04T09:37:55;96172.84;;;11.59;86.68
62103;BME280;48077;48.104;11.702;2022-10-04T09:52:06;96168.53;;;12.13;82.09
62103;BME280;48077;48.104;11.702;2022-10-04T10:04:51;96165.13;;;12.36;79.77
62103;BME280;48077;48.104;11.702;2022-10-04T10:07:43;96166.44;;;12.45;78.48
62103;BME280;48077;48.104;11.702;2022-10-04T10:10:20;96158.06;;;12.42;78.97
62103;BME280;48077;48.104;11.702;2022-10-04T10:32:22;96165.50;;;12.82;76.26
62103;BME280;48077;48.104;11.702;2022-10-04T10:40:41;96172.50;;;13.06;76.31
62103;BME280;48077;48.104;11.702;2022-10-04T10:43:38;96168.66;;;13.26;72.00
62103;BME280;48077;48.104;11.702;2022-10-04T10:56:58;96196.34;;;14.02;72.36
62103;BME280;48077;48.104;11.702;2022-10-04T11:05:08;96191.84;;;14.60;69.44
62103;BME280;48077;48.104;11.702;2022-10-04T11:07:47;96178.31;;;14.84;69.59
62103;BME280;48077;48.104;11.702;2022-10-04T11:15:37;96165.59;;;14.79;66.60
62103;BME280;48077;48.104;11.702;2022-10-04T11:21:28;96161.47;;;14.88;67.42
62103;BME280;48077;48.104;11.702;2022-10-04T11:24:31;96162.66;;;14.81;65.51
62103;BME280;48077;48.104;11.702;2022-10-04T11:27:21;96166.00;;;14.71;67.90
62103;BME280;48077;48.104;11.702;2022-10-04T11:30:06;96156.88;;;15.23;66.37
62103;BME280;48077;48.104;11.702;2022-10-04T11:49:36;96149.28;;;16.96;59.45
62103;BME280;48077;48.104;11.702;2022-10-04T11:57:47;96141.16;;;16.64;55.48
62103;BME280;48077;48.104;11.702;2022-10-04T12:00:17;96153.72;;;16.53;56.75
62103;BME280;48077;48.104;11.702;2022-10-04T12:03:16;96151.56;;;16.28;58.86
62103;BME280;48077;48.104;11.702;2022-10-04T12:06:02;96144.97;;;16.41;58.66
62103;BME280;48077;48.104;11.702;2022-10-04T12:11:45;96126.41;;;16.98;55.17
62103;BME280;48077;48.104;11.702;2022-10-04T12:23:04;96116.88;;;16.58;58.67
62103;BME280;48077;48.104;11.702;2022-10-04T12:26:10;96111.31;;;16.43;59.01
62103;BME280;48077;48.104;11.702;2022-10-04T12:29:00;96119.25;;;16.28;59.52
62103;BME280;48077;48.104;11.702;2022-10-04T12:31:27;96117.59;;;16.22;59.75
62103;BME280;48077;48.104;11.702;2022-10-04T12:34:26;96113.84;;;16.01;60.41
62103;BME280;48077;48.104;11.702;2022-10-04T12:45:26;96102.94;;;15.46;62.84
62103;BME280;48077;48.104;11.702;2022-10-04T12:53:22;96108.81;;;15.43;62.53
62103;BME280;48077;48.104;11.702;2022-10-04T12:58:58;96111.34;;;15.33;61.50
62103;BME280;48077;48.104;11.702;2022-10-04T13:04:16;96105.59;;;15.63;61.05
62103;BME280;48077;48.104;11.702;2022-10-04T13:07:05;96104.59;;;15.91;60.48
62103;BME280;48077;48.104;11.702;2022-10-04T13:12:31;96103.56;;;16.47;58.31
62103;BME280;48077;48.104;11.702;2022-10-04T13:25:53;96096.16;;;17.82;50.86
62103;BME280;48077;48.104;11.702;2022-10-04T13:31:37;96085.22;;;18.19;50.37
62103;BME280;48077;48.104;11.702;2022-10-04T13:34:41;96086.09;;;18.40;49.96
62103;BME280;48077;48.104;11.702;2022-10-04T13:37:32;96086.91;;;18.76;48.61
62103;BME280;48077;48.104;11.702;2022-10-04T13:40:29;96082.03;;;18.53;49.53
62103;BME280;48077;48.104;11.702;2022-10-04T13:59:41;96099.91;;;17.75;52.09
62103;BME280;48077;48.104;11.702;2022-10-04T14:02:28;96108.50;;;17.72;52.70
62103;BME280;48077;48.104;11.702;2022-10-04T14:08:13;96098.63;;;17.35;52.23
62103;BME280;48077;48.104;11.702;2022-10-04T14:16:24;96107.34;;;16.78;54.99
62103;BME280;48077;48.104;11.702;2022-10-04T14:19:13;96102.25;;;16.49;55.33
62103;BME280;48077;48.104;11.702;2022-10-04T14:24:37;96103.22;;;16.11;55.73
62103;BME280;48077;48.104;11.702;2022-10-04T14:34:55;96103.13;;;15.40;60.62
62103;BME280;48077;48.104;11.702;2022-10-04T14:52:27;96098.72;;;14.77;62.21
62103;BME280;48077;48.104;11.702;2022-10-04T14:55:08;96085.59;;;14.64;64.44
62103;BME280;48077;48.104;11.702;2022-10-04T15:00:23;96098.25;;;14.52;65.78
62103;BME280;48077;48.104;11.702;2022-10-04T15:10:52;96107.69;;;14.09;66.54
62103;BME280;48077;48.104;11.702;2022-10-04T15:13:26;96102.50;;;14.02;67.03
62103;BME280;48077;48.104;11.702;2022-10-04T15:16:44;96108.81;;;13.96;67.63
62103;BME280;48077;48.104;11.702;2022-10-04T15:19:10;96100.06;;;13.89;69.95
62103;BME280;48077;48.104;11.702;2022-10-04T15:35:21;96113.34;;;13.55;72.74
62103;BME280;48077;48.104;11.702;2022-10-04T15:37:50;96113.69;;;13.47;73.83
62103;BME280;48077;48.104;11.702;2022-10-04T15:40:33;96111.97;;;13.41;74.32
62103;BME280;48077;48.104;11.702;2022-10-04T15:45:46;96106.03;;;13.15;75.86
62103;BME280;48077;48.104;11.702;2022-10-04T15:48:24;96116.38;;;13.11;76.78
62103;BME280;48077;48.104;11.702;2022-10-04T15:54:10;96108.59;;;12.98;78.14
62103;BME280;48077;48.104;11.702;2022-10-04T15:56:26;96090.97;;;12.79;78.38
62103;BME280;48077;48.104;11.702;2022-10-04T15:59:04;96108.22;;;12.83;78.87
62103;BME280;48077;48.104;11.702;2022-10-04T16:04:42;96105.63;;;12.64;80.31
62103;BME280;48077;48.104;11.702;2022-10-04T16:13:03;96098.69;;;12.33;83.26
62103;BME280;48077;48.104;11.702;2022-10-04T16:15:30;96104.97;;;12.27;84.35
62103;BME280;48077;48.104;11.702;2022-10-04T16:21:04;96098.25;;;12.06;86.07
62103;BME280;48077;48.104;11.702;2022-10-04T16:23:36;96100.66;;;11.95;86.46
62103;BME280;48077;48.104;11.702;2022-10-04T16:26:09;96100.34;;;11.85;86.98
62103;BME280;48077;48.104;11.702;2022-10-04T16:31:36;96097.38;;;11.63;88.22
62103;BME280;48077;48.104;11.702;2022-10-04T16:34:13;96106.94;;;11.52;88.95
62103;BME280;48077;48.104;11.702;2022-10-04T16:36:50;96102.56;;;11.40;89.57
62103;BME280;48077;48.104;11.702;2022-10-04T16:42:20;96108.72;;;11.22;92.42
62103;BME280;48077;48.104;11.702;2022-10-04T16:44:51;96107.97;;;11.14;92.80
62103;BME280;48077;48.104;11.702;2022-10-04T16:49:54;96100.81;;;10.90;93.63
62103;BME280;48077;48.104;11.702;2022-10-04T16:55:02;96102.41;;;10.72;95.55
62103;BME280;48077;48.104;11.702;2022-10-04T16:57:26;96097.19;;;10.59;95.73
62103;BME280;48077;48.104;11.702;2022-10-04T16:59:53;96103.19;;;10.55;96.61
62103;BME280;48077;48.104;11.702;2022-10-04T17:05:18;96099.63;;;10.36;97.63
62103;BME280;48077;48.104;11.702;2022-10-04T17:15:48;96094.84;;;10.06;99.06
62103;BME280;48077;48.104;11.702;2022-10-04T17:21:56;96087.97;;;9.91;99.76
62103;BME280;48077;48.104;11.702;2022-10-04T17:24:24;96087.63;;;9.81;100.00
62103;BME280;48077;48.104;11.702;2022-10-04T17:32:50;96092.00;;;9.62;100.00
62103;BME280;48077;48.104;11.702;2022-10-04T17:35:57;96102.09;;;9.53;100.00
62103;BME280;48077;48.104;11.702;2022-10-04T17:38:35;96098.88;;;9.38;100.00
62103;BME280;48077;48.104;11.702;2022-10-04T17:48:59;96112.25;;;9.11;100.00
62103;BME280;48077;48.104;11.702;2022-10-04T17:51:45;96089.56;;;8.96;100.00
62103;BME280;48077;48.104;11.702;2022-10-04T17:54:52;96117.38;;;9.00;100.00
62103;BME280;48077;48.104;11.702;2022-10-04T17:57:50;96116.59;;;8.93;100.00
62103;BME280;48077;48.104;11.702;2022-10-04T18:00:20;96118.03;;;8.88;100.00
62103;BME280;48077;48.104;11.702;2022-10-04T18:03:12;96108.81;;;8.78;100.00
62103;BME280;48077;48.104;11.702;2022-10-04T18:11:41;96113.94;;;8.66;100.00
62103;BME280;48077;48.104;11.702;2022-10-04T18:14:44;96117.41;;;8.60;100.00
62103;BME280;48077;48.104;11.702;2022-10-04T18:17:13;96120.69;;;8.55;100.00
62103;BME280;48077;48.104;11.702;2022-10-04T18:22:18;96126.84;;;8.42;100.00
62103;BME280;48077;48.104;11.702;2022-10-04T18:24:44;96123.91;;;8.37;100.00
62103;BME280;48077;48.104;11.702;2022-10-04T18:27:28;96127.19;;;8.32;100.00
62103;BME280;48077;48.104;11.702;2022-10-04T18:30:13;96129.84;;;8.26;100.00
62103;BME280;48077;48.104;11.702;2022-10-04T18:32:38;96134.94;;;8.21;100.00
62103;BME280;48077;48.104;11.702;2022-10-04T18:35:19;96131.25;;;8.15;100.00
62103;BME280;48077;48.104;11.702;2022-10-04T18:37:49;96129.22;;;8.10;100.00
62103;BME280;48077;48.104;11.702;2022-10-04T18:40:20;96128.38;;;8.03;100.00
62103;BME280;48077;48.104;11.702;2022-10-04T18:47:45;96135.28;;;7.91;100.00
62103;BME280;48077;48.104;11.702;2022-10-04T18:55:37;96131.56;;;7.79;100.00
62103;BME280;48077;48.104;11.702;2022-10-04T19:01:13;96126.41;;;7.64;100.00
62103;BME280;48077;48.104;11.702;2022-10-04T19:04:02;96128.00;;;7.58;100.00
62103;BME280;48077;48.104;11.702;2022-10-04T19:06:35;96120.88;;;7.52;100.00
62103;BME280;48077;48.104;11.702;2022-10-04T19:09:11;96115.72;;;7.44;100.00
62103;BME280;48077;48.104;11.702;2022-10-04T19:17:13;96133.16;;;7.25;100.00
62103;BME280;48077;48.104;11.702;2022-10-04T19:19:55;96137.03;;;7.22;100.00
62103;BME280;48077;48.104;11.702;2022-10-04T19:24:57;96137.41;;;7.13;100.00
62103;BME280;48077;48.104;11.702;2022-10-04T19:27:37;96139.63;;;7.09;100.00
62103;BME280;48077;48.104;11.702;2022-10-04T19:35:53;96141.59;;;7.00;100.00
62103;BME280;48077;48.104;11.702;2022-10-04T19:38:39;96150.13;;;6.96;100.00
62103;BME280;48077;48.104;11.702;2022-10-04T19:41:16;96156.81;;;6.92;100.00
62103;BME280;48077;48.104;11.702;2022-10-04T19:46:31;96168.78;;;6.81;100.00
62103;BME280;48077;48.104;11.702;2022-10-04T19:48:56;96169.00;;;6.79;100.00
62103;BME280;48077;48.104;11.702;2022-10-04T19:54:25;96150.38;;;6.73;100.00
62103;BME280;48077;48.104;11.702;2022-10-04T19:56:54;96140.53;;;6.66;100.00
62103;BME280;48077;48.104;11.702;2022-10-04T19:59:24;96127.81;;;6.55;100.00
62103;BME280;48077;48.104;11.702;2022-10-04T20:01:50;96144.16;;;6.59;100.00
62103;BME280;48077;48.104;11.702;2022-10-04T20:04:16;96148.19;;;6.55;100.00
62103;BME280;48077;48.104;11.702;2022-10-04T20:07:00;96152.88;;;6.53;100.00
62103;BME280;48077;48.104;11.702;2022-10-04T20:09:53;96153.44;;;6.48;100.00
62103;BME280;48077;48.104;11.702;2022-10-04T20:12:35;96158.66;;;6.41;100.00
62103;BME280;48077;48.104;11.702;2022-10-04T20:17:46;96151.06;;;6.32;100.00
62103;BME280;48077;48.104;11.702;2022-10-04T20:23:01;96137.66;;;6.18;100.00
62103;BME280;48077;48.104;11.702;2022-10-04T20:28:08;96140.31;;;6.18;100.00
62103;BME280;48077;48.104;11.702;2022-10-04T20:31:01;96137.25;;;6.15;100.00
62103;BME280;48077;48.104;11.702;2022-10-04T20:44:01;96148.97;;;6.05;100.00
62103;BME280;48077;48.104;11.702;2022-10-04T20:46:27;96143.03;;;6.03;100.00
62103;BME280;48077;48.104;11.702;2022-10-04T20:48:53;96152.06;;;6.09;100.00
62103;BME280;48077;48.104;11.702;2022-10-04T20:51:18;96151.25;;;6.08;100.00
62103;BME280;48077;48.104;11.702;2022-10-04T20:53:42;96144.88;;;6.03;100.00
62103;BME280;48077;48.104;11.702;2022-10-04T20:58:51;96146.13;;;6.07;100.00
62103;BME280;48077;48.104;11.702;2022-10-04T21:04:24;96168.88;;;6.01;100.00
62103;BME280;48077;48.104;11.702;2022-10-04T21:07:21;96160.88;;;5.95;100.00
62103;BME280;48077;48.104;11.702;2022-10-04T21:09:45;96168.63;;;5.96;100.00
62103;BME280;48077;48.104;11.702;2022-10-04T21:17:38;96172.63;;;5.92;100.00
62103;BME280;48077;48.104;11.702;2022-10-04T21:20:03;96177.94;;;5.92;100.00
62103;BME280;48077;48.104;11.702;2022-10-04T21:24:53;96175.63;;;5.89;100.00
62103;BME280;48077;48.104;11.702;2022-10-04T21:27:29;96173.19;;;5.87;100.00
62103;BME280;48077;48.104;11.702;2022-10-04T21:29:52;96177.56;;;5.80;100.00
62103;BME280;48077;48.104;11.702;2022-10-04T21:32:16;96177.22;;;5.83;100.00
62103;BME280;48077;48.104;11.702;2022-10-04T21:34:39;96182.06;;;5.80;100.00
62103;BME280;48077;48.104;11.702;2022-10-04T21:37:02;96183.25;;;5.77;100.00
62103;BME280;48077;48.104;11.702;2022-10-04T21:39:26;96179.13;;;5.75;100.00
62103;BME280;48077;48.104;11.702;2022-10-04T21:41:49;96171.50;;;5.65;100.00
62103;BME280;48077;48.104;11.702;2022-10-04T21:44:13;96187.81;;;5.68;100.00